createdAt,value
2023-02-02T00:02:57.244Z,83.39
2023-02-02T00:05:59.716Z,83.86
2023-02-02T00:09:03.154Z,84.91
2023-02-02T00:12:05.614Z,86.00
2023-02-02T00:15:08.551Z,85.96
2023-02-02T00:18:10.938Z,85.99
2023-02-02T00:21:13.342Z,85.83
2023-02-02T00:24:18.194Z,86.02
2023-02-02T00:27:20.731Z,86.21
2023-02-02T00:30:23.284Z,86.21
2023-02-02T00:33:25.747Z,86.22
2023-02-02T00:36:28.150Z,86.21
2023-02-02T00:39:30.712Z,85.54
2023-02-02T00:42:33.833Z,85.43
2023-02-02T00:45:38.126Z,85.71
2023-02-02T00:48:40.548Z,85.54
2023-02-02T00:51:43.057Z,84.65
2023-02-02T00:54:45.481Z,84.82
2023-02-02T00:57:48.063Z,84.49
2023-02-02T01:00:50.717Z,84.31
2023-02-02T01:03:53.458Z,84.25
2023-02-02T01:06:55.865Z,83.42
2023-02-02T01:09:58.372Z,84.09
2023-02-02T01:13:01.085Z,83.50
2023-02-02T01:16:04.621Z,83.69
2023-02-02T01:19:07.256Z,83.52
2023-02-02T01:22:09.785Z,83.94
2023-02-02T01:25:12.280Z,83.84
2023-02-02T01:28:14.692Z,84.39
2023-02-02T01:31:18.945Z,84.63
2023-02-02T01:34:21.549Z,84.72
2023-02-02T01:37:24.085Z,84.03
2023-02-02T01:40:26.575Z,84.63
2023-02-02T01:43:45.308Z,84.24
2023-02-02T01:46:47.725Z,85.00
2023-02-02T01:49:50.687Z,84.15
2023-02-02T01:52:55.539Z,84.74
2023-02-02T01:55:58.404Z,84.64
2023-02-02T01:59:01.348Z,84.96
2023-02-02T02:02:03.910Z,84.85
2023-02-02T02:05:08.340Z,84.62
2023-02-02T02:08:22.188Z,84.57
2023-02-02T02:11:25.207Z,83.58
2023-02-02T02:14:46.784Z,84.26
2023-02-02T02:18:28.687Z,84.50
2023-02-02T02:21:57.217Z,85.63
2023-02-02T02:25:36.769Z,86.30
2023-02-02T02:29:01.054Z,85.35
2023-02-02T02:32:27.353Z,85.56
2023-02-02T02:36:02.924Z,85.62
2023-02-02T02:39:14.963Z,85.96
2023-02-02T02:42:21.307Z,85.65
2023-02-02T02:45:27.145Z,86.17
2023-02-02T02:48:31.287Z,86.21
2023-02-02T02:51:53.199Z,86.74
2023-02-02T02:55:01.572Z,86.41
2023-02-02T02:58:10.026Z,86.63
2023-02-02T03:01:21.785Z,86.07
2023-02-02T03:04:51.363Z,85.72
2023-02-02T03:08:12.172Z,85.82
2023-02-02T03:11:15.442Z,86.51
2023-02-02T03:14:17.780Z,86.62
2023-02-02T03:17:20.225Z,87.10
2023-02-02T03:20:22.781Z,87.13
2023-02-02T03:23:25.689Z,87.54
2023-02-02T03:26:28.169Z,87.48
2023-02-02T03:29:30.754Z,86.49
2023-02-02T03:32:33.445Z,86.84
2023-02-02T03:35:35.810Z,86.45
2023-02-02T03:38:38.465Z,86.32
2023-02-02T03:41:40.898Z,86.80
2023-02-02T03:44:43.293Z,87.06
2023-02-02T03:47:45.736Z,87.18
2023-02-02T03:50:48.237Z,87.00
2023-02-02T03:53:50.649Z,85.88
2023-02-02T03:56:53.057Z,85.51
2023-02-02T03:59:55.700Z,84.07
2023-02-02T04:02:58.171Z,84.19
2023-02-02T04:06:00.946Z,84.20
2023-02-02T04:09:03.551Z,84.13
2023-02-02T04:12:06.135Z,84.37
2023-02-02T04:15:09.086Z,83.26
2023-02-02T04:18:11.690Z,83.55
2023-02-02T04:21:14.065Z,83.08
2023-02-02T04:24:16.527Z,82.95
2023-02-02T04:27:18.926Z,83.22
2023-02-02T04:30:22.079Z,83.10
2023-02-02T04:33:26.394Z,83.44
2023-02-02T04:36:28.909Z,83.75
2023-02-02T04:39:31.515Z,83.36
2023-02-02T04:42:35.091Z,83.70
2023-02-02T04:45:37.865Z,84.19
2023-02-02T04:48:43.678Z,84.01
2023-02-02T04:51:46.263Z,84.15
2023-02-02T04:54:48.708Z,83.66
2023-02-02T04:57:51.214Z,83.95
2023-02-02T05:00:53.770Z,83.00
2023-02-02T05:03:56.435Z,81.81
2023-02-02T05:06:58.836Z,82.28
2023-02-02T05:10:01.382Z,81.59
2023-02-02T05:13:03.769Z,82.55
2023-02-02T05:16:07.127Z,81.83
2023-02-02T05:19:11.218Z,82.82
2023-02-02T05:22:13.663Z,81.36
2023-02-02T05:25:16.289Z,81.11
2023-02-02T05:28:18.926Z,80.88
2023-02-02T05:31:21.767Z,82.12
2023-02-02T05:34:24.292Z,82.26
2023-02-02T05:37:26.858Z,81.74
2023-02-02T05:40:29.484Z,81.33
2023-02-02T05:43:32.696Z,81.90
2023-02-02T05:46:35.177Z,82.28
2023-02-02T05:49:37.605Z,81.95
2023-02-02T05:52:40.842Z,81.87
2023-02-02T05:55:43.327Z,82.18
2023-02-02T05:58:48.137Z,81.97
2023-02-02T06:01:50.599Z,82.31
2023-02-02T06:04:52.972Z,81.39
2023-02-02T06:07:55.421Z,81.73
2023-02-02T06:10:57.942Z,81.26
2023-02-02T06:14:00.538Z,82.14
2023-02-02T06:17:03.013Z,81.94
2023-02-02T06:20:05.971Z,82.30
2023-02-02T06:23:08.526Z,81.62
2023-02-02T06:26:11.804Z,81.50
2023-02-02T06:29:14.504Z,81.59
2023-02-02T06:32:17.069Z,81.68
2023-02-02T06:35:19.838Z,82.14
2023-02-02T06:38:22.417Z,82.57
2023-02-02T06:41:25.643Z,83.38
2023-02-02T06:44:28.074Z,83.66
2023-02-02T06:47:32.863Z,84.07
2023-02-02T06:50:35.415Z,84.28
2023-02-02T06:53:37.887Z,83.18
2023-02-02T06:56:40.503Z,83.61
2023-02-02T06:59:43.074Z,81.62
2023-02-02T07:02:47.064Z,81.84
2023-02-02T07:05:49.725Z,81.85
2023-02-02T07:09:02.520Z,82.50
2023-02-02T07:12:06.231Z,82.75
2023-02-02T07:15:09.249Z,82.73
2023-02-02T07:18:11.734Z,82.72
2023-02-02T07:21:22.437Z,82.22
2023-02-02T07:24:25.136Z,82.08
2023-02-02T07:27:27.652Z,82.56
2023-02-02T07:30:30.189Z,83.23
2023-02-02T07:33:32.573Z,83.72
2023-02-02T07:36:35.220Z,84.16
2023-02-02T07:39:37.704Z,84.26
2023-02-02T07:42:40.398Z,83.60
2023-02-02T07:45:43.326Z,84.53
2023-02-02T07:48:45.953Z,85.39
2023-02-02T07:51:49.382Z,86.05
2023-02-02T07:54:57.673Z,85.95
2023-02-02T07:58:04.994Z,86.00
2023-02-02T08:01:09.516Z,85.70
2023-02-02T08:04:12.362Z,85.07
2023-02-02T08:07:15.168Z,84.47
2023-02-02T08:10:17.817Z,84.51
2023-02-02T08:13:20.968Z,83.31
2023-02-02T08:16:24.199Z,81.10
2023-02-02T08:19:27.017Z,81.10
2023-02-02T08:22:29.516Z,78.42
2023-02-02T08:25:31.912Z,77.81
2023-02-02T08:28:36.399Z,76.55
2023-02-02T08:31:43.019Z,77.68
2023-02-02T08:34:48.736Z,76.19
2023-02-02T08:37:51.180Z,74.89
2023-02-02T08:40:53.679Z,73.55
2023-02-02T08:43:56.162Z,72.73
2023-02-02T08:46:58.857Z,73.24
2023-02-02T08:50:01.469Z,73.59
2023-02-02T08:53:04.510Z,72.07
2023-02-02T08:56:13.394Z,72.69
2023-02-02T08:59:16.157Z,72.77
2023-02-02T09:02:19.084Z,73.00
2023-02-02T09:05:21.614Z,73.02
2023-02-02T09:08:24.155Z,73.92
2023-02-02T09:11:27.000Z,73.33
2023-02-02T09:14:29.862Z,72.22
2023-02-02T09:17:32.326Z,71.41
2023-02-02T09:20:35.070Z,69.65
2023-02-02T09:23:39.812Z,69.01
2023-02-02T09:26:43.386Z,67.86
2023-02-02T09:29:45.941Z,67.49
2023-02-02T09:32:51.319Z,65.84
2023-02-02T09:35:53.756Z,65.71
2023-02-02T09:38:56.544Z,65.83
2023-02-02T09:42:13.745Z,65.90
2023-02-02T09:45:26.722Z,65.29
2023-02-02T09:48:38.911Z,65.13
2023-02-02T09:51:46.596Z,64.57
2023-02-02T09:54:50.809Z,65.19
2023-02-02T09:57:56.118Z,64.30
2023-02-02T10:01:18.461Z,64.13
2023-02-02T10:04:27.999Z,63.71
2023-02-02T10:07:37.824Z,62.65
2023-02-02T10:10:43.444Z,61.99
2023-02-02T10:13:46.203Z,63.66
2023-02-02T10:16:49.682Z,63.33
2023-02-02T10:19:55.752Z,62.97
2023-02-02T10:23:03.217Z,62.81
2023-02-02T10:26:21.671Z,61.83
2023-02-02T10:29:47.999Z,60.27
2023-02-02T10:33:26.013Z,59.65
2023-02-02T10:36:49.934Z,55.30
2023-02-02T10:40:22.843Z,53.14
2023-02-02T10:43:51.774Z,52.24
2023-02-02T10:46:56.505Z,51.38
2023-02-02T10:50:15.211Z,50.37
2023-02-02T10:53:17.714Z,50.78
2023-02-02T10:56:35.450Z,50.25
2023-02-02T10:59:57.402Z,50.45
2023-02-02T11:03:04.529Z,49.85
2023-02-02T11:06:26.522Z,50.83
2023-02-02T11:09:37.282Z,50.06
2023-02-02T11:12:46.792Z,49.22
2023-02-02T11:15:49.377Z,48.76
2023-02-02T11:18:51.914Z,47.70
2023-02-02T11:21:59.170Z,47.22
2023-02-02T11:25:04.615Z,49.09
2023-02-02T11:28:18.789Z,50.18
2023-02-02T11:31:35.441Z,51.29
2023-02-02T11:34:37.988Z,52.83
2023-02-02T11:37:57.928Z,52.12
2023-02-02T11:41:09.230Z,52.46
2023-02-02T11:44:25.750Z,52.70
2023-02-02T11:47:30.540Z,53.49
2023-02-02T11:50:33.760Z,53.66
2023-02-02T11:53:47.172Z,54.54
2023-02-02T11:56:52.150Z,55.44
2023-02-02T12:00:16.043Z,56.23
2023-02-02T12:03:44.782Z,55.80
2023-02-02T12:06:47.274Z,54.98
2023-02-02T12:09:50.455Z,55.59
2023-02-02T12:12:59.844Z,56.26
2023-02-02T12:16:02.318Z,57.37
2023-02-02T12:19:30.133Z,57.96
2023-02-02T12:22:44.722Z,58.23
2023-02-02T12:25:59.348Z,58.13
2023-02-02T12:29:17.426Z,56.55
2023-02-02T12:32:25.824Z,57.08
2023-02-02T12:35:41.479Z,58.51
2023-02-02T12:39:14.885Z,58.73
2023-02-02T12:42:25.285Z,59.83
2023-02-02T12:45:33.911Z,59.56
2023-02-02T12:49:00.748Z,59.80
2023-02-02T12:52:16.265Z,58.66
2023-02-02T12:55:42.998Z,57.47
2023-02-02T12:58:56.284Z,56.19
2023-02-02T13:02:40.696Z,57.86
2023-02-02T13:05:55.328Z,57.59
2023-02-02T13:09:20.539Z,56.85
2023-02-02T13:12:24.022Z,57.64
2023-02-02T13:15:36.341Z,58.09
2023-02-02T13:18:51.986Z,57.53
2023-02-02T13:21:56.605Z,59.39
2023-02-02T13:25:01.319Z,59.37
2023-02-02T13:28:06.846Z,59.00
2023-02-02T13:31:18.137Z,59.66
2023-02-02T13:34:24.022Z,59.27
2023-02-02T13:37:54.291Z,59.44
2023-02-02T13:40:59.818Z,59.02
2023-02-02T13:44:02.381Z,59.35
2023-02-02T13:47:10.284Z,61.01
2023-02-02T13:50:16.920Z,60.29
2023-02-02T13:53:42.159Z,60.09
2023-02-02T13:57:04.801Z,59.63
2023-02-02T14:00:24.915Z,59.70
2023-02-02T14:03:38.904Z,60.21
2023-02-02T14:06:59.362Z,60.32
2023-02-02T14:10:01.826Z,60.90
2023-02-02T14:13:36.282Z,61.02
2023-02-02T14:16:38.573Z,60.51
2023-02-02T14:19:43.735Z,60.90
2023-02-02T14:22:48.416Z,61.42
2023-02-02T14:26:05.302Z,60.36
2023-02-02T14:29:31.295Z,61.46
2023-02-02T14:32:42.316Z,61.60
2023-02-02T14:35:44.659Z,61.38
2023-02-02T14:38:56.441Z,61.28
2023-02-02T14:42:36.823Z,62.20
2023-02-02T14:45:43.433Z,63.18
2023-02-02T14:48:57.156Z,64.09
2023-02-02T14:52:01.497Z,64.57
2023-02-02T14:55:04.343Z,64.76
2023-02-02T14:58:07.268Z,64.49
2023-02-02T15:01:32.692Z,62.82
2023-02-02T15:04:35.352Z,63.26
2023-02-02T15:07:52.070Z,63.66
2023-02-02T15:11:23.786Z,63.46
2023-02-02T15:14:30.717Z,64.00
2023-02-02T15:17:39.030Z,64.21
2023-02-02T15:20:49.887Z,63.94
2023-02-02T15:23:52.364Z,63.66
2023-02-02T15:26:55.793Z,64.61
2023-02-02T15:30:03.810Z,64.78
2023-02-02T15:33:23.786Z,64.82
2023-02-02T15:36:29.239Z,65.14
2023-02-02T15:39:35.057Z,65.64
2023-02-02T15:42:55.185Z,65.22
2023-02-02T15:46:10.487Z,65.88
2023-02-02T15:49:33.193Z,66.12
2023-02-02T15:52:46.629Z,66.31
2023-02-02T15:55:49.562Z,65.99
2023-02-02T15:58:54.952Z,65.67
2023-02-02T16:02:06.673Z,66.42
2023-02-02T16:05:31.169Z,66.87
2023-02-02T16:08:36.312Z,66.89
2023-02-02T16:11:42.287Z,66.87
2023-02-02T16:14:49.753Z,68.08
2023-02-02T16:18:03.546Z,68.26
2023-02-02T16:21:11.452Z,68.36
2023-02-02T16:24:29.682Z,68.40
2023-02-02T16:27:32.807Z,68.67
2023-02-02T16:30:38.028Z,69.19
2023-02-02T16:33:46.545Z,69.04
2023-02-02T16:37:28.130Z,69.93
2023-02-02T16:40:30.793Z,69.43
2023-02-02T16:43:34.394Z,69.56
2023-02-02T16:46:48.420Z,70.31
2023-02-02T16:50:10.104Z,70.30
2023-02-02T16:53:21.743Z,71.02
2023-02-02T16:56:27.895Z,70.53
2023-02-02T16:59:33.597Z,70.85
2023-02-02T17:02:39.166Z,70.85
2023-02-02T17:05:51.952Z,71.51
2023-02-02T17:08:56.408Z,71.24
2023-02-02T17:12:32.128Z,72.04
2023-02-02T17:15:36.822Z,72.25
2023-02-02T17:18:39.741Z,71.06
2023-02-02T17:21:42.419Z,70.90
2023-02-02T17:24:47.528Z,70.78
2023-02-02T17:27:50.056Z,71.02
2023-02-02T17:31:13.595Z,71.09
2023-02-02T17:34:16.120Z,71.12
2023-02-02T17:37:18.509Z,71.06
2023-02-02T17:40:22.595Z,71.10
2023-02-02T17:43:27.037Z,72.22
2023-02-02T17:46:31.098Z,71.94
2023-02-02T17:49:33.835Z,72.10
2023-02-02T17:52:39.538Z,71.64
2023-02-02T17:55:43.229Z,71.24
2023-02-02T17:58:45.881Z,69.84
2023-02-02T18:01:48.738Z,68.90
2023-02-02T18:04:51.518Z,68.64
2023-02-02T18:07:54.931Z,68.23
2023-02-02T18:10:59.529Z,69.36
2023-02-02T18:14:02.705Z,70.16
2023-02-02T18:17:05.124Z,70.31
2023-02-02T18:20:08.245Z,70.09
2023-02-02T18:23:11.422Z,71.50
2023-02-02T18:26:19.707Z,71.10
2023-02-02T18:29:22.622Z,71.19
2023-02-02T18:32:25.394Z,70.74
2023-02-02T18:35:28.418Z,71.30
2023-02-02T18:38:31.040Z,71.81
2023-02-02T18:41:33.897Z,71.45
2023-02-02T18:44:38.434Z,71.86
2023-02-02T18:47:41.644Z,71.45
2023-02-02T18:50:44.324Z,70.97
2023-02-02T18:53:47.471Z,70.79
2023-02-02T18:56:50.160Z,71.31
2023-02-02T18:59:53.017Z,71.43
2023-02-02T19:02:55.545Z,72.01
2023-02-02T19:06:16.231Z,72.00
2023-02-02T19:09:18.736Z,72.26
2023-02-02T19:12:26.814Z,72.43
2023-02-02T19:15:33.123Z,72.57
2023-02-02T19:18:35.667Z,72.40
2023-02-02T19:21:41.426Z,73.75
2023-02-02T19:24:44.072Z,74.25
2023-02-02T19:27:46.580Z,74.31
2023-02-02T19:30:50.758Z,74.41
2023-02-02T19:33:53.813Z,75.42
2023-02-02T19:36:56.487Z,75.86
2023-02-02T19:40:13.638Z,75.24
2023-02-02T19:43:24.569Z,75.07
2023-02-02T19:46:29.292Z,74.74
2023-02-02T19:49:35.080Z,74.43
2023-02-02T19:52:37.759Z,73.85
2023-02-02T19:55:40.652Z,74.22
2023-02-02T19:58:43.367Z,74.90
2023-02-02T20:01:47.887Z,74.59
2023-02-02T20:05:02.689Z,74.04
2023-02-02T20:08:26.615Z,74.07
2023-02-02T20:11:41.021Z,73.88
2023-02-02T20:14:43.851Z,74.76
2023-02-02T20:17:46.555Z,75.49
2023-02-02T20:20:52.830Z,75.16
2023-02-02T20:23:55.684Z,74.97
2023-02-02T20:27:02.587Z,74.92
2023-02-02T20:30:30.927Z,75.21
2023-02-02T20:33:34.000Z,76.08
2023-02-02T20:36:41.078Z,75.98
2023-02-02T20:40:01.529Z,75.47
2023-02-02T20:43:04.678Z,74.88
2023-02-02T20:46:07.262Z,74.56
2023-02-02T20:49:10.033Z,74.43
2023-02-02T20:52:21.355Z,74.27
2023-02-02T20:55:24.055Z,74.16
2023-02-02T20:58:26.868Z,74.80
2023-02-02T21:01:31.311Z,74.75
2023-02-02T21:04:34.379Z,74.18
2023-02-02T21:07:37.171Z,74.52
2023-02-02T21:10:41.191Z,74.58
2023-02-02T21:13:43.590Z,75.09
2023-02-02T21:16:46.318Z,74.90
2023-02-02T21:19:49.061Z,74.80
2023-02-02T21:22:51.731Z,74.26
2023-02-02T21:25:54.408Z,74.95
2023-02-02T21:28:58.326Z,75.51
2023-02-02T21:32:02.768Z,75.77
2023-02-02T21:35:06.623Z,75.03
2023-02-02T21:38:14.491Z,74.57
2023-02-02T21:41:16.855Z,74.05
2023-02-02T21:44:21.471Z,73.70
2023-02-02T21:47:30.324Z,73.96
2023-02-02T21:50:36.089Z,74.20
2023-02-02T21:53:38.432Z,74.06
2023-02-02T21:56:42.109Z,74.91
2023-02-02T21:59:46.794Z,74.68
2023-02-02T22:02:51.090Z,75.62
2023-02-02T22:06:19.210Z,76.34
2023-02-02T22:09:26.972Z,77.72
2023-02-02T22:12:30.037Z,77.92
2023-02-02T22:15:34.541Z,77.24
2023-02-02T22:18:37.002Z,77.38
2023-02-02T22:21:39.411Z,77.39
2023-02-02T22:24:58.697Z,77.99
2023-02-02T22:28:23.089Z,78.03
2023-02-02T22:31:25.870Z,77.24
2023-02-02T22:34:28.631Z,76.63
2023-02-02T22:37:31.073Z,76.80
2023-02-02T22:40:33.531Z,76.66
2023-02-02T22:43:35.991Z,76.54
2023-02-02T22:46:38.515Z,76.56
2023-02-02T22:49:41.192Z,76.04
2023-02-02T22:52:43.893Z,76.17
2023-02-02T22:55:46.373Z,75.64
2023-02-02T22:58:48.824Z,75.67
2023-02-02T23:01:51.251Z,74.70
2023-02-02T23:04:53.767Z,74.50
2023-02-02T23:07:56.320Z,75.23
2023-02-02T23:10:59.062Z,75.61
2023-02-02T23:14:01.436Z,75.69
2023-02-02T23:17:03.943Z,76.13
2023-02-02T23:20:09.245Z,75.87
2023-02-02T23:23:11.691Z,75.34
2023-02-02T23:26:14.136Z,74.50
2023-02-02T23:29:16.673Z,72.06
2023-02-02T23:32:19.221Z,70.66
2023-02-02T23:35:21.620Z,70.80
2023-02-02T23:38:24.033Z,71.24
2023-02-02T23:41:26.610Z,72.67
2023-02-02T23:44:29.079Z,74.71
2023-02-02T23:47:33.885Z,74.52
2023-02-02T23:50:39.903Z,73.60
2023-02-02T23:53:42.778Z,72.28
2023-02-02T23:56:45.268Z,71.96
2023-02-02T23:59:47.902Z,71.50
